KADS/ADS METAR and TAF weather

Enter ICAO airport designator
Station Type Date Time Source
KADS METAR 2022/08/16 17:47 UTC NOAA

KADS 161747Z 24010KT 13SM FEW040 BKN250 35/18 A2996


Station Type Date Time Source
KADS Decoded METAR 2022/08/16 17:47 UTC NOAA

Dallas / Addison Airport, TX, United States (KADS) 32-58N 096-50W
Aug 16, 2022 - 01:47 PM EDT / 2022.08.16 1747 UTC
Wind: from the WSW (240 degrees) at 12 MPH (10 KT):0
Visibility: 13 mile(s):0
Sky conditions: mostly cloudy
Temperature: 95 F (35 C)
Heat index: 97.0 F (36.1 C):1
Dew Point: 64 F (18 C)
Relative Humidity: 36%
Pressure (altimeter): 29.96 in. Hg (1014 hPa)
ob: KADS 161747Z 24010KT 13SM FEW040 BKN250 35/18 A2996
cycle: 18

Station Type Date Time Source
KADS TAF UTC NOAA

Error!

Example: see airport list